Time;durP1;ratioP1;P1;durP2;ratioP2;P2;SDS_P1;SDS_P2;PMS_P1;PMS_P2;Temp;Humidity;BMP_temperature;BMP_pressure;BME280_temperature;BME280_humidity;BME280_pressure;Samples;Min_cycle;Max_cycle;Signal;HPM_P1;HPM_P2
2021/01/19 00:02:05;;;;;;;1.83;0.90;;;;;;;11.17;52.93;100775.19;4898008;28;128430;-63
2021/01/19 00:04:31;;;;;;;1.27;0.75;;;;;;;11.18;53.64;100779.50;4905155;28;127029;-63
2021/01/19 00:06:57;;;;;;;1.35;0.70;;;;;;;11.18;52.99;100777.63;4902781;28;122849;-62
2021/01/19 00:09:23;;;;;;;1.50;0.75;;;;;;;11.17;53.25;100777.91;4888341;28;127392;-62
2021/01/19 00:11:49;;;;;;;1.65;0.80;;;;;;;11.17;52.89;100781.41;4914325;28;128113;-63
2021/01/19 00:14:15;;;;;;;2.58;0.88;;;;;;;11.15;53.42;100771.94;4893391;28;125916;-62
2021/01/19 00:16:41;;;;;;;2.05;0.95;;;;;;;11.14;53.01;100776.53;4918390;28;104892;-63
2021/01/19 00:19:07;;;;;;;1.50;0.88;;;;;;;11.17;53.07;100781.41;4911470;28;126849;-62
2021/01/19 00:21:33;;;;;;;2.03;0.80;;;;;;;11.19;52.91;100764.94;4922203;28;128430;-63
2021/01/19 00:23:59;;;;;;;2.67;1.00;;;;;;;11.15;53.33;100766.53;4920770;28;116039;-64
2021/01/19 00:26:25;;;;;;;2.10;1.10;;;;;;;11.18;53.51;100764.13;4904336;28;123614;-63
2021/01/19 00:28:51;;;;;;;1.80;0.90;;;;;;;11.18;53.05;100757.94;4920211;28;128147;-62
2021/01/19 00:31:17;;;;;;;1.50;1.08;;;;;;;11.19;53.02;100763.06;4913552;28;129253;-62
2021/01/19 00:33:43;;;;;;;1.90;0.95;;;;;;;11.17;52.62;100757.13;4894043;28;127957;-63
2021/01/19 00:36:09;;;;;;;1.88;1.15;;;;;;;11.19;53.04;100756.84;4902265;28;122895;-63
2021/01/19 00:38:35;;;;;;;2.03;1.00;;;;;;;11.20;53.11;100763.84;4895489;28;128171;-62
2021/01/19 00:41:02;;;;;;;1.60;1.00;;;;;;;11.19;52.78;100760.34;4912780;28;112763;-63
2021/01/19 00:43:28;;;;;;;2.35;1.02;;;;;;;11.15;52.79;100753.06;4906498;28;128305;-61
2021/01/19 00:45:54;;;;;;;2.30;1.20;;;;;;;11.17;53.48;100751.72;4917044;28;122795;-63
2021/01/19 00:48:20;;;;;;;1.83;1.27;;;;;;;11.18;53.24;100747.13;4920597;28;127410;-62
2021/01/19 00:50:46;;;;;;;2.35;1.30;;;;;;;11.19;52.78;100748.75;4922867;28;128145;-62
2021/01/19 00:53:12;;;;;;;1.90;1.20;;;;;;;11.20;53.04;100747.66;4921573;28;127274;-62
2021/01/19 00:55:38;;;;;;;2.08;1.15;;;;;;;11.18;53.58;100744.44;4917232;28;121775;-62
2021/01/19 00:58:04;;;;;;;1.98;1.27;;;;;;;11.19;52.73;100746.06;4900406;28;98456;-62
2021/01/19 01:00:30;;;;;;;1.63;1.00;;;;;;;11.17;53.25;100749.03;4884782;28;125102;-62
2021/01/19 01:02:56;;;;;;;2.58;1.20;;;;;;;11.16;53.52;100742.00;4903717;28;97969;-62
2021/01/19 01:05:22;;;;;;;1.90;1.20;;;;;;;11.16;53.32;100744.72;4903444;28;122389;-63
2021/01/19 01:07:48;;;;;;;2.67;1.50;;;;;;;11.19;52.74;100746.06;4902953;28;98859;-62
2021/01/19 01:10:16;;;;;;;2.10;1.42;;;;;;;11.18;53.44;100753.34;4904200;28;98611;-63
2021/01/19 01:12:42;;;;;;;1.92;1.30;;;;;;;11.21;53.27;100749.31;4885341;28;98303;-62
2021/01/19 01:15:10;;;;;;;2.10;1.30;;;;;;;11.21;52.72;100743.91;4901735;28;111509;-62
2021/01/19 01:17:37;;;;;;;2.92;1.17;;;;;;;11.21;52.77;100742.03;4902818;28;97924;-62
2021/01/19 01:20:11;;;;;;;1.60;1.10;;;;;;;11.19;53.48;100732.56;4903296;28;98438;-62
2021/01/19 01:22:47;;;;;;;1.92;1.00;;;;;;;11.21;53.02;100733.13;4869289;28;98923;-63
2021/01/19 01:25:14;;;;;;;2.65;1.20;;;;;;;11.20;52.89;100729.63;4902306;28;107717;-62
2021/01/19 01:27:41;;;;;;;2.28;1.17;;;;;;;11.20;53.02;100728.78;4886834;28;98464;-63
2021/01/19 01:30:08;;;;;;;1.70;1.10;;;;;;;11.21;53.47;100733.13;4903690;28;106650;-63
2021/01/19 01:32:39;;;;;;;2.13;1.30;;;;;;;11.17;53.09;100732.84;4903195;28;97861;-63
2021/01/19 01:35:06;;;;;;;1.98;1.00;;;;;;;11.21;52.94;100728.53;4902913;28;97833;-63
2021/01/19 01:37:32;;;;;;;2.00;1.05;;;;;;;11.22;53.02;100732.03;4901819;28;99574;-62
2021/01/19 01:39:58;;;;;;;2.67;1.10;;;;;;;11.21;52.90;100722.34;4902491;28;125106;-63
2021/01/19 01:42:25;;;;;;;2.25;1.10;;;;;;;11.20;53.10;100728.78;4901922;28;128266;-62
2021/01/19 01:44:52;;;;;;;2.03;1.08;;;;;;;11.22;53.15;100724.75;4902918;28;97639;-63
2021/01/19 01:47:25;;;;;;;2.58;1.15;;;;;;;11.17;52.94;100722.03;4902258;28;98468;-63
2021/01/19 01:49:52;;;;;;;1.70;1.10;;;;;;;11.20;52.66;100720.69;4884777;28;104737;-64
2021/01/19 01:52:21;;;;;;;3.13;1.02;;;;;;;11.19;52.70;100706.38;4885254;28;98186;-63
2021/01/19 01:54:49;;;;;;;2.22;1.20;;;;;;;11.20;53.52;100715.28;4884971;28;97909;-62
2021/01/19 01:57:17;;;;;;;2.33;1.17;;;;;;;11.17;53.50;100715.84;4901860;28;100093;-62
2021/01/19 01:59:47;;;;;;;1.88;1.10;;;;;;;11.17;53.20;100716.66;4902228;28;101341;-62
2021/01/19 02:02:13;;;;;;;1.85;1.35;;;;;;;11.19;53.02;100717.19;4899585;28;98359;-63
2021/01/19 02:04:39;;;;;;;1.67;1.00;;;;;;;11.21;53.08;100709.66;4902422;28;121847;-62
2021/01/19 02:07:21;;;;;;;1.90;1.00;;;;;;;11.23;52.89;100712.06;4902145;28;117978;-62
2021/01/19 02:10:06;;;;;;;1.97;1.03;;;;;;;11.19;53.30;100713.69;4902815;28;98705;-63
2021/01/19 02:12:42;;;;;;;1.80;0.90;;;;;;;11.21;53.18;100714.22;4869330;28;98471;-62
2021/01/19 02:15:08;;;;;;;1.80;1.10;;;;;;;11.24;53.08;100711.00;4884458;28;100523;-62
2021/01/19 02:18:01;;;;;;;1.48;0.85;;;;;;;11.21;53.06;100711.53;4902925;28;97865;-64
2021/01/19 02:21:24;;;;;;;1.60;0.90;;;;;;;11.19;52.88;100706.38;4884885;28;118947;-62
2021/01/19 02:24:11;;;;;;;2.05;1.00;;;;;;;11.22;53.28;100707.75;4896381;28;98211;-63
2021/01/19 02:27:01;;;;;;;2.03;1.15;;;;;;;11.20;53.33;100702.63;4882586;28;107063;-62
2021/01/19 02:29:53;;;;;;;2.55;1.10;;;;;;;11.23;53.17;100703.97;4902716;28;98812;-62
2021/01/19 02:32:49;;;;;;;1.80;0.90;;;;;;;11.23;52.81;100699.38;4884544;28;98582;-64
2021/01/19 02:35:23;;;;;;;2.22;0.90;;;;;;;11.23;53.02;100698.56;4886110;28;98192;-63
2021/01/19 02:38:38;;;;;;;1.85;0.93;;;;;;;11.22;53.17;100699.66;4899383;28;101877;-62
2021/01/19 02:41:04;;;;;;;1.67;0.90;;;;;;;11.25;53.13;100688.34;4915710;28;107320;-62
2021/01/19 02:43:30;;;;;;;1.67;0.90;;;;;;;11.26;53.28;100687.25;4915905;28;106321;-62
2021/01/19 02:45:57;;;;;;;1.33;0.80;;;;;;;11.27;52.87;100688.88;4915699;28;121614;-64
2021/01/19 02:48:24;;;;;;;1.85;0.98;;;;;;;11.30;53.01;100691.03;4915317;28;98123;-62
2021/01/19 02:50:50;;;;;;;1.67;0.80;;;;;;;11.28;53.46;100687.81;4901643;28;102934;-62
2021/01/19 02:53:17;;;;;;;1.63;0.90;;;;;;;11.28;53.08;100685.91;4900123;28;120593;-64
2021/01/19 02:55:44;;;;;;;1.20;0.70;;;;;;;11.29;53.27;100687.53;4898981;28;128374;-62
2021/01/19 02:59:09;;;;;;;1.75;0.80;;;;;;;11.28;52.88;100690.50;4901825;28;97876;-62
2021/01/19 03:01:49;;;;;;;1.33;0.68;;;;;;;11.30;52.95;100685.66;4882921;28;98507;-62
2021/01/19 03:04:15;;;;;;;2.17;0.60;;;;;;;11.31;52.95;100689.97;4914850;28;117762;-63
2021/01/19 03:06:42;;;;;;;1.52;0.60;;;;;;;11.31;52.87;100693.47;4898727;28;113643;-63
2021/01/19 03:09:08;;;;;;;1.67;0.68;;;;;;;11.32;53.18;100686.19;4899607;28;98150;-64
2021/01/19 03:11:35;;;;;;;1.40;0.70;;;;;;;11.33;53.20;100681.63;4898427;28;126871;-62
2021/01/19 03:14:01;;;;;;;1.40;0.80;;;;;;;11.36;52.58;100678.34;4916412;28;98437;-63
2021/01/19 03:16:27;;;;;;;1.40;0.60;;;;;;;11.35;53.01;100685.66;4899296;28;106205;-63
2021/01/19 03:18:54;;;;;;;1.70;0.60;;;;;;;11.37;52.82;100688.91;4900071;28;123988;-64
2021/01/19 03:21:20;;;;;;;2.25;0.70;;;;;;;11.36;52.43;100679.19;4901533;28;128806;-64
2021/01/19 03:23:46;;;;;;;1.95;0.70;;;;;;;11.38;52.97;100681.63;4882234;28;98154;-63
2021/01/19 03:26:12;;;;;;;1.30;0.70;;;;;;;11.37;52.32;100672.72;4887333;28;106506;-64
2021/01/19 03:28:38;;;;;;;2.22;0.68;;;;;;;11.40;52.25;100672.19;4900926;28;124426;-62
2021/01/19 03:31:04;;;;;;;1.40;0.70;;;;;;;11.39;52.77;100667.84;4899986;28;128923;-63
2021/01/19 03:33:30;;;;;;;1.63;0.65;;;;;;;11.39;52.40;100665.13;4901262;28;98924;-64
2021/01/19 03:35:57;;;;;;;1.63;0.50;;;;;;;11.44;52.50;100662.47;4900358;28;125382;-62
2021/01/19 03:38:23;;;;;;;1.02;0.50;;;;;;;11.47;52.65;100669.19;4900513;28;117781;-63
2021/01/19 03:40:49;;;;;;;1.85;0.60;;;;;;;11.52;52.20;100666.53;4901489;28;98213;-64
2021/01/19 03:43:15;;;;;;;1.55;0.60;;;;;;;11.53;52.16;100663.56;4901028;28;98460;-63
2021/01/19 03:45:41;;;;;;;1.20;0.50;;;;;;;11.57;52.27;100663.03;4901703;28;98284;-63
2021/01/19 03:48:07;;;;;;;1.30;0.55;;;;;;;11.60;51.98;100667.88;4900067;28;122022;-62
2021/01/19 03:50:34;;;;;;;1.60;0.60;;;;;;;11.60;51.82;100654.38;4900685;28;117300;-63
2021/01/19 03:53:00;;;;;;;1.30;0.60;;;;;;;11.64;51.79;100656.28;4882361;28;128426;-63
2021/01/19 03:55:30;;;;;;;1.00;0.40;;;;;;;11.59;51.64;100645.44;4890101;28;98372;-63
2021/01/19 03:57:57;;;;;;;1.40;0.65;;;;;;;11.62;51.77;100644.91;4909258;28;98341;-63
2021/01/19 04:00:23;;;;;;;1.25;0.40;;;;;;;11.63;51.81;100648.44;4920691;28;100361;-63
2021/01/19 04:02:49;;;;;;;1.23;0.40;;;;;;;11.61;52.17;100646.00;4911661;28;98378;-63
2021/01/19 04:05:15;;;;;;;1.23;0.50;;;;;;;11.59;51.73;100641.94;4911988;28;99424;-62
2021/01/19 04:07:42;;;;;;;0.90;0.50;;;;;;;11.60;52.31;100635.50;4912711;28;117763;-63
2021/01/19 04:10:11;;;;;;;1.02;0.40;;;;;;;11.59;52.31;100631.16;4919702;28;118210;-63
2021/01/19 04:12:37;;;;;;;1.25;0.40;;;;;;;11.60;52.28;100628.19;4912933;28;98473;-62
2021/01/19 04:15:08;;;;;;;1.00;0.40;;;;;;;11.59;51.64;100623.84;4900371;28;99820;-63
2021/01/19 04:17:34;;;;;;;1.70;0.32;;;;;;;11.59;51.82;100629.25;4901930;28;99085;-62
2021/01/19 04:20:00;;;;;;;1.33;0.50;;;;;;;11.57;51.86;100631.44;4919232;28;125275;-63
2021/01/19 04:22:26;;;;;;;1.70;0.60;;;;;;;11.55;51.85;100629.00;4916029;28;127809;-63
2021/01/19 04:24:52;;;;;;;1.20;0.50;;;;;;;11.55;51.94;100628.19;4918116;28;100106;-63
2021/01/19 04:27:19;;;;;;;1.00;0.47;;;;;;;11.54;51.78;100623.84;4917447;28;120207;-64
2021/01/19 04:29:46;;;;;;;1.30;0.40;;;;;;;11.54;52.21;100626.56;4902180;28;98287;-63
2021/01/19 04:32:12;;;;;;;0.95;0.40;;;;;;;11.54;52.18;100621.97;4914834;28;117668;-62
2021/01/19 04:34:38;;;;;;;0.80;0.40;;;;;;;11.55;51.53;100618.22;4915638;28;98262;-63
2021/01/19 04:37:04;;;;;;;1.05;0.47;;;;;;;11.52;52.00;100632.25;4917061;28;124133;-63
2021/01/19 04:39:30;;;;;;;0.98;0.52;;;;;;;11.56;52.22;100624.41;4911939;28;130008;-62
2021/01/19 04:41:56;;;;;;;1.15;0.55;;;;;;;11.55;52.34;100622.78;4917598;28;126805;-62
2021/01/19 04:44:24;;;;;;;1.50;0.60;;;;;;;11.54;51.90;100621.97;4894701;28;99363;-62
2021/01/19 04:46:50;;;;;;;1.30;0.50;;;;;;;11.55;52.40;100623.59;4901175;28;97930;-63
2021/01/19 04:49:17;;;;;;;1.13;0.55;;;;;;;11.57;51.65;100623.31;4881544;28;118511;-64
2021/01/19 04:51:45;;;;;;;1.10;0.60;;;;;;;11.58;51.44;100624.13;4922411;28;98363;-63
2021/01/19 04:54:11;;;;;;;1.50;0.57;;;;;;;11.55;51.96;100620.91;4904747;28;111490;-62
2021/01/19 04:56:38;;;;;;;2.33;0.60;;;;;;;11.56;52.27;100613.63;4887449;28;124049;-63
2021/01/19 04:59:12;;;;;;;0.90;0.40;;;;;;;11.54;51.66;100613.88;4917327;28;98564;-62
2021/01/19 05:01:55;;;;;;;1.23;0.50;;;;;;;11.58;52.33;100608.75;4929637;28;98854;-63
2021/01/19 05:04:27;;;;;;;1.20;0.55;;;;;;;11.55;52.24;100603.88;4904518;28;107822;-63
2021/01/19 05:07:23;;;;;;;1.75;0.45;;;;;;;11.58;52.32;100607.94;4922636;28;98177;-62
2021/01/19 05:10:15;;;;;;;0.95;0.35;;;;;;;11.57;52.08;100606.31;4920041;28;98455;-63
2021/01/19 05:12:43;;;;;;;1.02;0.40;;;;;;;11.58;52.31;100599.84;4890924;28;128106;-62
2021/01/19 05:15:13;;;;;;;1.17;0.40;;;;;;;11.60;52.11;100600.38;4901864;28;98183;-63
2021/01/19 05:17:40;;;;;;;1.40;0.65;;;;;;;11.60;51.91;100601.19;4909622;28;98364;-63
2021/01/19 05:20:08;;;;;;;0.88;0.40;;;;;;;11.61;51.90;100597.41;4920781;28;99130;-62
2021/01/19 05:22:34;;;;;;;1.30;0.50;;;;;;;11.61;51.69;100597.41;4919175;28;121086;-62
2021/01/19 05:25:00;;;;;;;1.83;0.43;;;;;;;11.62;51.51;100596.31;4904706;28;98169;-64
2021/01/19 05:27:26;;;;;;;1.38;0.45;;;;;;;11.63;52.05;100584.47;4916699;28;121160;-62
2021/01/19 05:30:04;;;;;;;1.77;0.40;;;;;;;11.63;51.41;100586.31;4918352;28;126962;-63
2021/01/19 05:32:59;;;;;;;1.40;0.50;;;;;;;11.62;51.33;100582.81;4916413;28;98920;-63
2021/01/19 05:35:25;;;;;;;1.15;0.55;;;;;;;11.64;52.12;100585.25;4895205;28;128220;-62
2021/01/19 05:37:59;;;;;;;1.00;0.45;;;;;;;11.62;51.81;100582.00;4902904;28;106531;-63
2021/01/19 05:40:25;;;;;;;0.93;0.35;;;;;;;11.64;51.74;100580.69;4905083;28;98499;-62
2021/01/19 05:42:55;;;;;;;1.45;0.40;;;;;;;11.64;51.75;100585.25;4910022;28;116450;-63
2021/01/19 05:45:21;;;;;;;1.10;0.40;;;;;;;11.66;51.63;100580.38;4921020;28;114578;-62
2021/01/19 05:47:47;;;;;;;0.85;0.40;;;;;;;11.67;51.84;100580.13;4914211;28;105026;-62
2021/01/19 05:50:14;;;;;;;1.00;0.30;;;;;;;11.66;51.79;100592.00;4914269;28;113982;-62
2021/01/19 05:52:41;;;;;;;0.90;0.30;;;;;;;11.68;51.62;100583.63;4921052;28;98272;-64
2021/01/19 05:55:08;;;;;;;1.00;0.30;;;;;;;11.68;51.53;100589.03;4903297;28;98145;-62
2021/01/19 05:57:34;;;;;;;0.85;0.40;;;;;;;11.70;51.51;100589.56;4884019;28;97899;-63
2021/01/19 06:00:05;;;;;;;1.02;0.30;;;;;;;11.70;51.63;100592.25;4918833;28;98431;-62
2021/01/19 06:02:44;;;;;;;1.13;0.40;;;;;;;11.68;51.56;100581.75;4920947;28;98460;-63
2021/01/19 06:05:14;;;;;;;1.27;0.50;;;;;;;11.67;51.55;100580.13;4920264;28;126764;-63
2021/01/19 06:07:44;;;;;;;1.45;0.50;;;;;;;11.71;51.98;100585.78;4884825;28;97877;-62
2021/01/19 06:10:18;;;;;;;2.67;0.80;;;;;;;11.69;51.61;100593.34;4902553;28;98447;-63
2021/01/19 06:12:44;;;;;;;1.80;0.70;;;;;;;11.68;51.58;100581.75;4894441;28;98421;-63
2021/01/19 06:15:10;;;;;;;1.92;0.80;;;;;;;11.69;51.33;100583.34;4899569;28;127035;-63
2021/01/19 06:17:36;;;;;;;2.17;0.75;;;;;;;11.70;51.44;100573.38;4893865;28;110736;-62
2021/01/19 06:20:05;;;;;;;1.50;0.70;;;;;;;11.70;51.77;100576.88;4898363;28;127423;-63
2021/01/19 06:22:31;;;;;;;1.50;0.68;;;;;;;11.71;51.69;100566.88;4901336;28;116607;-63
2021/01/19 06:24:59;;;;;;;2.25;0.80;;;;;;;11.70;51.61;100555.28;4883566;28;127364;-63
2021/01/19 06:27:27;;;;;;;1.65;0.70;;;;;;;11.68;51.91;100553.94;4901556;28;97792;-62
2021/01/19 06:29:59;;;;;;;1.30;0.68;;;;;;;11.70;51.21;100539.06;4920567;28;98538;-62
2021/01/19 06:32:29;;;;;;;1.20;0.60;;;;;;;11.68;52.10;100543.13;4917304;28;98733;-62
2021/01/19 06:34:56;;;;;;;1.70;0.57;;;;;;;11.68;51.23;100538.53;4914473;28;98119;-63
2021/01/19 06:37:30;;;;;;;1.40;0.63;;;;;;;11.64;51.88;100532.06;4895315;28;107990;-62
2021/01/19 06:39:58;;;;;;;1.10;0.50;;;;;;;11.66;51.38;100538.00;4916141;28;98906;-63
2021/01/19 06:42:32;;;;;;;0.98;0.40;;;;;;;11.64;51.33;100532.06;4916537;28;98372;-62
2021/01/19 06:45:07;;;;;;;1.70;0.50;;;;;;;11.65;51.65;100527.47;4920235;28;105639;-63
2021/01/19 06:47:53;;;;;;;1.00;0.50;;;;;;;11.64;51.38;100526.66;4914774;28;98063;-62
2021/01/19 06:50:26;;;;;;;1.10;0.50;;;;;;;11.62;51.48;100526.13;4921201;28;98432;-62
2021/01/19 06:53:27;;;;;;;1.10;0.52;;;;;;;11.63;51.59;100525.06;4909550;28;98572;-63
2021/01/19 06:56:13;;;;;;;1.27;0.40;;;;;;;11.63;51.66;100518.81;4900754;28;118529;-63
2021/01/19 06:58:55;;;;;;;1.30;0.50;;;;;;;11.61;51.65;100508.31;4863382;28;98077;-63
2021/01/19 07:01:28;;;;;;;1.30;0.30;;;;;;;11.58;52.14;100502.66;4901854;28;97982;-64
2021/01/19 07:04:23;;;;;;;1.75;0.40;;;;;;;11.56;51.64;100500.22;4900842;28;98509;-62
2021/01/19 07:07:06;;;;;;;1.38;0.40;;;;;;;11.59;51.90;100499.66;4900129;28;97923;-63
2021/01/19 07:10:09;;;;;;;1.17;0.40;;;;;;;11.55;51.74;100496.72;4901209;28;97929;-62
2021/01/19 07:13:00;;;;;;;0.93;0.43;;;;;;;11.54;52.22;100495.09;4870395;28;98797;-63
2021/01/19 07:15:55;;;;;;;1.17;0.60;;;;;;;11.55;52.00;100491.31;4873814;28;98077;-64
2021/01/19 07:19:16;;;;;;;1.60;0.50;;;;;;;11.52;51.43;100486.47;4883468;28;98110;-63
2021/01/19 07:21:57;;;;;;;1.17;0.45;;;;;;;11.56;52.12;100486.72;4895854;28;98116;-63
2021/01/19 07:24:26;;;;;;;1.13;0.50;;;;;;;11.59;51.76;100488.88;4882815;28;98726;-64
2021/01/19 07:26:53;;;;;;;1.10;0.50;;;;;;;11.60;51.84;100484.31;4895334;28;99115;-63
2021/01/19 07:29:21;;;;;;;1.15;0.50;;;;;;;11.62;51.89;100476.72;4881824;28;99343;-62
2021/01/19 07:31:47;;;;;;;1.73;0.70;;;;;;;11.68;51.51;100470.25;4882126;28;98274;-62
2021/01/19 07:34:13;;;;;;;1.65;0.60;;;;;;;11.66;51.80;100459.69;4882884;28;99275;-62
2021/01/19 07:36:39;;;;;;;1.77;0.75;;;;;;;11.70;51.07;100460.75;4883288;28;99315;-63
2021/01/19 07:39:15;;;;;;;1.40;0.80;;;;;;;11.72;51.73;100457.81;4892644;28;126977;-64
2021/01/19 07:41:41;;;;;;;1.88;1.10;;;;;;;11.75;51.48;100452.66;4901396;28;97902;-62
2021/01/19 07:44:08;;;;;;;1.70;1.00;;;;;;;11.80;51.60;100449.13;4893301;28;128147;-64
2021/01/19 07:46:34;;;;;;;2.15;1.05;;;;;;;11.83;51.74;100454.03;4882108;28;109591;-63
2021/01/19 07:49:08;;;;;;;2.25;0.93;;;;;;;11.83;51.59;100448.63;4900656;28;127294;-63
2021/01/19 07:51:42;;;;;;;1.92;1.13;;;;;;;11.78;52.26;100446.69;4899380;28;98101;-63
2021/01/19 07:54:10;;;;;;;2.85;1.30;;;;;;;11.79;51.96;100442.94;4893549;28;98373;-63
2021/01/19 07:56:36;;;;;;;2.05;1.08;;;;;;;11.81;52.56;100445.34;4915217;28;99152;-63
2021/01/19 07:59:02;;;;;;;2.45;1.30;;;;;;;11.85;52.41;100435.63;4917490;28;99085;-62
2021/01/19 08:01:35;;;;;;;2.83;1.40;;;;;;;11.89;52.69;100444.00;4920787;28;97909;-63
2021/01/19 08:04:14;;;;;;;2.53;1.45;;;;;;;11.93;52.70;100423.44;4894838;28;98426;-61
2021/01/19 08:06:42;;;;;;;2.40;0.85;;;;;;;11.97;52.95;100427.22;4920812;28;98160;-63
2021/01/19 08:09:21;;;;;;;2.38;1.00;;;;;;;11.97;53.21;100417.22;4911961;28;98105;-62
2021/01/19 08:11:47;;;;;;;2.90;1.38;;;;;;;11.98;53.01;100408.00;4916574;28;98023;-63
2021/01/19 08:14:13;;;;;;;2.00;1.10;;;;;;;12.04;53.21;100415.00;4903574;28;104138;-63
2021/01/19 08:16:47;;;;;;;1.63;0.70;;;;;;;12.04;53.47;100416.91;4918452;28;111659;-63
2021/01/19 08:19:15;;;;;;;1.83;1.17;;;;;;;12.06;53.43;100411.22;4874690;28;118474;-63
2021/01/19 08:21:50;;;;;;;2.42;1.17;;;;;;;12.09;53.57;100410.66;4881634;28;112356;-63
2021/01/19 08:24:18;;;;;;;2.38;0.90;;;;;;;12.07;53.49;100410.16;4901699;28;98350;-62
2021/01/19 08:26:44;;;;;;;1.80;1.00;;;;;;;12.09;53.59;100407.97;4904146;28;116987;-62
2021/01/19 08:29:11;;;;;;;2.58;1.00;;;;;;;12.09;53.79;100406.06;4902750;28;98301;-63
2021/01/19 08:31:37;;;;;;;2.17;1.20;;;;;;;12.10;53.46;100402.28;4886108;28;98176;-62
2021/01/19 08:34:07;;;;;;;2.70;1.20;;;;;;;12.11;53.96;100403.91;4903843;28;112337;-62
2021/01/19 08:36:36;;;;;;;3.22;1.30;;;;;;;12.12;53.80;100386.59;4904505;28;98265;-63
2021/01/19 08:39:04;;;;;;;2.80;1.27;;;;;;;12.14;53.62;100395.22;4903860;28;98371;-63
2021/01/19 08:41:31;;;;;;;2.05;1.20;;;;;;;12.18;53.66;100382.81;4904067;28;97925;-63
2021/01/19 08:43:59;;;;;;;2.33;1.30;;;;;;;12.19;53.64;100373.59;4904124;28;98407;-62
2021/01/19 08:46:28;;;;;;;2.30;1.20;;;;;;;12.22;53.51;100374.91;4903433;28;98304;-63
2021/01/19 08:49:00;;;;;;;3.05;1.33;;;;;;;12.24;53.51;100380.88;4877121;28;118044;-63
2021/01/19 08:51:27;;;;;;;2.42;1.20;;;;;;;12.28;53.57;100368.41;4903330;28;109510;-63
2021/01/19 08:53:53;;;;;;;2.38;1.20;;;;;;;12.29;53.75;100367.31;4901262;28;125690;-62
2021/01/19 08:56:23;;;;;;;2.70;1.10;;;;;;;12.34;53.87;100364.59;4903687;28;114606;-62
2021/01/19 08:58:50;;;;;;;2.42;1.00;;;;;;;12.38;53.92;100357.53;4903449;28;98580;-63
2021/01/19 09:01:16;;;;;;;1.83;1.08;;;;;;;12.41;53.76;100361.53;4903977;28;97764;-63
2021/01/19 09:03:42;;;;;;;3.67;1.10;;;;;;;12.46;53.51;100356.94;4903975;28;98404;-63
2021/01/19 09:06:09;;;;;;;2.63;1.02;;;;;;;12.53;53.57;100359.28;4902661;28;98591;-63
2021/01/19 09:08:38;;;;;;;2.25;0.90;;;;;;;12.56;53.65;100360.63;4902880;28;98069;-62
2021/01/19 09:11:06;;;;;;;1.98;0.82;;;;;;;12.62;53.44;100364.91;4903002;28;97792;-63
2021/01/19 09:13:35;;;;;;;1.92;0.82;;;;;;;12.63;53.72;100363.81;4910090;28;98524;-64
2021/01/19 09:16:02;;;;;;;2.13;1.00;;;;;;;12.66;53.45;100357.84;4904631;28;98806;-64
2021/01/19 09:18:28;;;;;;;2.47;0.88;;;;;;;12.72;53.76;100345.88;4913223;28;113466;-62
2021/01/19 09:21:10;;;;;;;2.13;0.77;;;;;;;12.71;53.66;100338.88;4906480;28;118741;-63
2021/01/19 09:23:36;;;;;;;2.47;0.80;;;;;;;12.79;53.82;100327.44;4876251;28;98641;-63
2021/01/19 09:26:06;;;;;;;3.30;0.88;;;;;;;12.78;53.45;100321.22;4884128;28;99209;-62
2021/01/19 09:28:37;;;;;;;1.88;0.70;;;;;;;12.86;53.70;100316.28;4910891;28;98042;-63
2021/01/19 09:31:23;;;;;;;2.20;0.70;;;;;;;12.92;53.49;100310.50;4922795;28;98039;-64
2021/01/19 09:33:53;;;;;;;1.40;0.70;;;;;;;12.97;53.60;100307.78;4921498;28;98610;-62
2021/01/19 09:36:20;;;;;;;2.05;0.80;;;;;;;12.99;53.57;100307.47;4888498;28;98125;-64
2021/01/19 09:38:49;;;;;;;2.17;0.60;;;;;;;13.01;53.73;100303.41;4914548;28;98006;-64
2021/01/19 09:41:24;;;;;;;2.55;0.60;;;;;;;13.01;54.00;100302.59;4922934;28;98273;-62
2021/01/19 09:43:58;;;;;;;1.60;0.50;;;;;;;13.03;54.19;100298.50;4904598;28;98442;-63
2021/01/19 09:46:26;;;;;;;1.33;0.40;;;;;;;13.09;54.10;100285.72;4888061;28;107608;-62
2021/01/19 09:48:55;;;;;;;1.92;0.52;;;;;;;13.12;54.15;100274.31;4887815;28;98559;-63
2021/01/19 09:51:26;;;;;;;2.10;0.50;;;;;;;13.14;54.40;100264.03;4922275;28;97787;-64
2021/01/19 09:53:59;;;;;;;2.67;0.60;;;;;;;13.19;54.25;100258.53;4921156;28;98386;-64
2021/01/19 09:56:26;;;;;;;2.00;0.55;;;;;;;13.19;54.12;100261.25;4921890;28;117391;-62
2021/01/19 09:59:05;;;;;;;2.83;0.60;;;;;;;13.17;54.32;100258.03;4921940;28;97825;-64
2021/01/19 10:01:31;;;;;;;2.42;0.52;;;;;;;13.19;54.05;100247.72;4921918;28;97866;-62
2021/01/19 10:03:58;;;;;;;1.58;0.40;;;;;;;13.23;54.17;100246.06;4921779;28;98009;-62
2021/01/19 10:06:25;;;;;;;1.77;0.40;;;;;;;13.23;53.98;100245.25;4922233;28;98541;-64
2021/01/19 10:08:54;;;;;;;1.65;0.40;;;;;;;13.21;54.39;100248.25;4903837;28;98050;-62
2021/01/19 10:11:34;;;;;;;1.65;0.52;;;;;;;13.19;54.43;100228.75;4903751;28;97857;-64
2021/01/19 10:14:14;;;;;;;2.20;0.60;;;;;;;13.20;54.52;100233.09;4902418;28;98435;-62
2021/01/19 10:16:50;;;;;;;2.47;0.60;;;;;;;13.24;54.49;100228.75;4921521;28;98462;-63
2021/01/19 10:19:30;;;;;;;2.13;0.50;;;;;;;13.29;54.52;100221.66;4922007;28;98140;-63
2021/01/19 10:21:58;;;;;;;1.65;0.40;;;;;;;13.33;54.54;100209.16;4920440;28;97939;-62
2021/01/19 10:24:25;;;;;;;1.60;0.50;;;;;;;13.35;54.29;100199.63;4906799;28;108816;-63
2021/01/19 10:27:10;;;;;;;1.85;0.40;;;;;;;13.36;54.18;100200.44;4901292;28;98409;-63
2021/01/19 10:29:40;;;;;;;1.85;0.52;;;;;;;13.33;53.67;100180.19;4907560;28;106165;-63
2021/01/19 10:32:16;;;;;;;3.05;0.50;;;;;;;13.35;53.72;100177.16;4903811;28;97863;-64
2021/01/19 10:34:50;;;;;;;2.08;0.50;;;;;;;13.36;53.90;100176.91;4919840;28;98888;-63
2021/01/19 10:37:16;;;;;;;2.22;0.50;;;;;;;13.35;53.58;100167.13;4920323;28;98545;-63
2021/01/19 10:39:55;;;;;;;2.55;0.50;;;;;;;13.37;53.44;100162.25;4922447;28;98091;-63
2021/01/19 10:42:29;;;;;;;1.98;0.30;;;;;;;13.42;53.58;100155.97;4921257;28;98033;-63
2021/01/19 10:44:59;;;;;;;1.65;0.40;;;;;;;13.46;53.44;100146.16;4920842;28;108878;-64
2021/01/19 10:47:26;;;;;;;1.52;0.40;;;;;;;13.53;53.48;100133.03;4919849;28;100062;-63
2021/01/19 10:49:52;;;;;;;1.63;0.30;;;;;;;13.63;53.17;100129.34;4920935;28;97956;-64
2021/01/19 10:52:18;;;;;;;2.42;0.40;;;;;;;13.72;53.33;100124.91;4921301;28;98166;-63
2021/01/19 10:54:44;;;;;;;2.33;0.50;;;;;;;13.81;53.13;100114.97;4915404;28;127126;-63
2021/01/19 10:57:10;;;;;;;1.33;0.40;;;;;;;13.82;53.19;100113.06;4901205;28;98205;-63
2021/01/19 10:59:37;;;;;;;2.35;0.50;;;;;;;13.82;52.82;100108.44;4901751;28;99058;-63
2021/01/19 11:02:06;;;;;;;2.30;0.50;;;;;;;13.88;52.65;100099.16;4902826;28;97790;-62
2021/01/19 11:04:32;;;;;;;2.33;0.50;;;;;;;13.91;52.66;100103.16;4892209;28;98840;-63
2021/01/19 11:07:01;;;;;;;3.50;0.65;;;;;;;14.00;52.62;100091.34;4899563;28;98412;-63
2021/01/19 11:09:27;;;;;;;3.13;0.60;;;;;;;14.10;52.48;100086.81;4894886;28;97976;-63
2021/01/19 11:11:53;;;;;;;2.40;0.50;;;;;;;14.20;52.30;100073.91;4900174;28;122344;-63
2021/01/19 11:14:19;;;;;;;2.90;0.70;;;;;;;14.24;52.53;100072.19;4901662;28;110522;-64
2021/01/19 11:16:45;;;;;;;2.17;0.50;;;;;;;14.24;52.92;100057.84;4900728;28;97983;-64
2021/01/19 11:19:13;;;;;;;2.53;0.45;;;;;;;14.24;52.87;100047.00;4892930;28;128171;-63
2021/01/19 11:21:41;;;;;;;1.92;0.50;;;;;;;14.21;52.84;100037.53;4883531;28;97892;-63
2021/01/19 11:24:08;;;;;;;2.42;0.50;;;;;;;14.24;52.82;100030.72;4894435;28;98806;-64
2021/01/19 11:26:38;;;;;;;2.60;0.60;;;;;;;14.23;52.76;100024.50;4880986;28;106409;-63
2021/01/19 11:29:07;;;;;;;1.27;0.30;;;;;;;14.23;53.11;100012.88;4874580;28;98060;-63
2021/01/19 11:31:33;;;;;;;1.75;0.40;;;;;;;14.20;53.13;100016.97;4889237;28;99388;-63
2021/01/19 11:34:05;;;;;;;1.70;0.45;;;;;;;14.16;53.23;100007.03;4888105;28;98158;-64
2021/01/19 11:36:34;;;;;;;1.52;0.40;;;;;;;14.11;53.37;100010.66;4881447;28;98790;-62
2021/01/19 11:39:00;;;;;;;1.90;0.60;;;;;;;14.00;53.32;100004.63;4880400;28;98048;-63